Loznica, Serbia
Current Conditions -  °F | °C
As of 10:00 AM on Friday 31 Oct 2014 (Local Time) from LQTZ Reporting Station
Haze Haze  
Wind Chill:   Ceiling: 2500
Heat Index:   Visibility: 1.2mi
Dew Point:   Wind: 1mph
Humidity: 100%   Direction: NA
Pressure: 30.36"   Gusts: NA
Location:  44.53°N, 19.22°E
Report Text: LQTZ 310800Z VRB01KT 2000 BR SCT005 OVC025 07/07 Q1028
Loading
Personal Weather Stations






























Interactive Weather Map
Tropical Storm Tracking
New forecast layout! Learn more

10-Day Weather Forecast

Advertisements
Track Severe Weather on mobile